createdAt,value
2019-05-10T00:00:57.606Z,2.60
2019-05-10T00:01:57.601Z,2.60
2019-05-10T00:02:57.586Z,2.60
2019-05-10T00:03:57.591Z,2.60
2019-05-10T00:04:57.563Z,2.90
2019-05-10T00:05:57.554Z,2.60
2019-05-10T00:06:57.538Z,2.40
2019-05-10T00:07:57.539Z,2.50
2019-05-10T00:08:57.563Z,2.70
2019-05-10T00:09:57.505Z,2.80
2019-05-10T00:10:57.500Z,2.60
2019-05-10T00:11:57.488Z,2.50
2019-05-10T00:12:57.477Z,2.90
2019-05-10T00:13:57.468Z,2.90
2019-05-10T00:14:57.464Z,2.60
2019-05-10T00:15:57.443Z,2.60
2019-05-10T00:16:57.433Z,2.70
2019-05-10T00:17:57.419Z,2.80
2019-05-10T00:18:57.437Z,2.70
2019-05-10T00:19:57.417Z,2.50
2019-05-10T00:20:57.393Z,2.70
2019-05-10T00:21:57.379Z,2.50
2019-05-10T00:22:57.371Z,3.00
2019-05-10T00:23:57.358Z,2.80
2019-05-10T00:25:03.743Z,2.90
2019-05-10T00:25:58.338Z,3.10
2019-05-10T00:26:57.321Z,2.80
2019-05-10T00:27:57.350Z,3.10
2019-05-10T00:28:57.341Z,2.90
2019-05-10T00:29:57.329Z,2.80
2019-05-10T00:30:57.286Z,2.90
2019-05-10T00:31:57.297Z,2.70
2019-05-10T00:32:57.263Z,2.80
2019-05-10T00:33:57.270Z,2.70
2019-05-10T00:34:57.252Z,3.00
2019-05-10T00:35:57.230Z,3.30
2019-05-10T00:36:57.226Z,3.10
2019-05-10T00:37:57.213Z,3.30
2019-05-10T00:38:57.201Z,3.20
2019-05-10T00:39:57.205Z,3.00
2019-05-10T00:40:57.177Z,3.30
2019-05-10T00:41:57.195Z,3.40
2019-05-10T00:42:57.156Z,3.20
2019-05-10T00:43:57.147Z,2.90
2019-05-10T00:44:57.153Z,2.80
2019-05-10T00:45:57.122Z,3.30
2019-05-10T00:46:57.109Z,3.10
2019-05-10T00:47:57.100Z,3.10
2019-05-10T00:48:57.088Z,3.40
2019-05-10T00:49:57.109Z,3.30
2019-05-10T00:50:57.069Z,3.70
2019-05-10T00:51:57.059Z,3.60
2019-05-10T00:52:57.050Z,3.60
2019-05-10T00:53:57.038Z,3.80
2019-05-10T00:54:57.047Z,3.60
2019-05-10T00:55:57.039Z,3.60
2019-05-10T00:56:57.005Z,3.80
2019-05-10T00:57:56.988Z,3.90
2019-05-10T00:58:56.988Z,3.90
2019-05-10T00:59:56.978Z,4.10
2019-05-10T01:00:56.977Z,3.70
2019-05-10T01:01:56.953Z,3.70
2019-05-10T01:02:56.944Z,3.80
2019-05-10T01:03:56.929Z,3.90
2019-05-10T01:04:56.945Z,3.80
2019-05-10T01:05:56.916Z,3.80
2019-05-10T01:06:56.911Z,3.80
2019-05-10T01:07:56.888Z,4.10
2019-05-10T01:08:56.876Z,3.70
2019-05-10T01:09:56.865Z,3.80
2019-05-10T01:10:56.878Z,3.70
2019-05-10T01:11:56.841Z,4.00
2019-05-10T01:12:56.829Z,3.60
2019-05-10T01:13:56.825Z,3.60
2019-05-10T01:14:56.808Z,3.60
2019-05-10T01:15:56.829Z,3.80
2019-05-10T01:16:56.792Z,3.60
2019-05-10T01:17:56.793Z,3.40
2019-05-10T01:18:56.768Z,3.60
2019-05-10T01:19:56.767Z,3.50
2019-05-10T01:20:56.764Z,3.40
2019-05-10T01:21:56.741Z,3.90
2019-05-10T01:22:56.726Z,3.50
2019-05-10T01:23:56.713Z,3.60
2019-05-10T01:24:56.749Z,4.20
2019-05-10T01:25:56.722Z,3.50
2019-05-10T01:26:56.679Z,3.30
2019-05-10T01:27:56.691Z,3.00
2019-05-10T01:28:56.665Z,3.60
2019-05-10T01:29:56.654Z,3.40
2019-05-10T01:30:56.660Z,3.90
2019-05-10T01:31:56.626Z,3.70
2019-05-10T01:32:56.609Z,3.70
2019-05-10T01:33:56.606Z,3.30
2019-05-10T01:34:56.594Z,3.60
2019-05-10T01:35:56.586Z,3.60
2019-05-10T01:36:56.752Z,3.90
2019-05-10T01:37:56.558Z,3.70
2019-05-10T01:38:56.552Z,4.00
2019-05-10T01:39:56.540Z,3.30
2019-05-10T01:40:56.560Z,3.20
2019-05-10T01:41:56.547Z,3.40
2019-05-10T01:42:56.512Z,3.70
2019-05-10T01:43:56.494Z,3.60
2019-05-10T01:44:56.480Z,3.20
2019-05-10T01:45:56.480Z,3.60
2019-05-10T01:46:56.484Z,3.70
2019-05-10T01:47:56.453Z,3.40
2019-05-10T01:48:56.453Z,3.50
2019-05-10T01:49:56.429Z,3.20
2019-05-10T01:50:56.438Z,3.70
2019-05-10T01:51:56.426Z,3.30
2019-05-10T01:52:56.398Z,3.40
2019-05-10T01:53:56.397Z,3.60
2019-05-10T01:54:56.388Z,3.60
2019-05-10T01:55:56.373Z,3.30
2019-05-10T01:56:56.368Z,3.70
2019-05-10T01:57:56.375Z,3.40
2019-05-10T01:58:56.357Z,3.30
2019-05-10T01:59:56.329Z,3.20
2019-05-10T02:00:56.316Z,3.70
2019-05-10T02:01:56.313Z,3.20
2019-05-10T02:02:56.291Z,3.20
2019-05-10T02:03:56.302Z,3.30
2019-05-10T02:04:56.275Z,4.10
2019-05-10T02:05:56.263Z,3.00
2019-05-10T02:06:56.264Z,3.60
2019-05-10T02:07:56.248Z,3.50
2019-05-10T02:08:56.230Z,3.50
2019-05-10T02:09:56.214Z,3.70
2019-05-10T02:10:56.202Z,3.30
2019-05-10T02:11:56.211Z,3.70
2019-05-10T02:12:56.189Z,3.20
2019-05-10T02:13:56.191Z,3.70
2019-05-10T02:14:56.162Z,3.40
2019-05-10T02:15:56.162Z,3.80
2019-05-10T02:16:56.156Z,4.10
2019-05-10T02:17:56.137Z,3.30
2019-05-10T02:18:56.123Z,3.70
2019-05-10T02:19:56.109Z,3.40
2019-05-10T02:20:56.103Z,3.50
2019-05-10T02:21:56.108Z,3.30
2019-05-10T02:22:56.079Z,3.00
2019-05-10T02:23:56.065Z,3.00
2019-05-10T02:24:56.060Z,3.00
2019-05-10T02:26:08.909Z,3.30
2019-05-10T02:26:57.204Z,3.70
2019-05-10T02:27:56.023Z,3.20
2019-05-10T02:28:56.007Z,3.10
2019-05-10T02:29:56.004Z,3.20
2019-05-10T02:30:56.008Z,3.50
2019-05-10T02:31:55.987Z,3.30
2019-05-10T02:32:55.993Z,3.50
2019-05-10T02:33:55.955Z,3.50
2019-05-10T02:34:55.949Z,3.30
2019-05-10T02:35:55.936Z,3.60
2019-05-10T02:36:55.943Z,3.40
2019-05-10T02:37:55.937Z,3.20
2019-05-10T02:38:55.919Z,3.70
2019-05-10T02:39:55.896Z,3.00
2019-05-10T02:40:55.960Z,3.10
2019-05-10T02:41:55.869Z,3.20
2019-05-10T02:42:55.892Z,3.10
2019-05-10T02:43:55.860Z,3.30
2019-05-10T02:44:55.851Z,3.20
2019-05-10T02:45:55.826Z,3.30
2019-05-10T02:46:55.821Z,3.30
2019-05-10T02:47:55.832Z,3.00
2019-05-10T02:48:55.798Z,3.40
2019-05-10T02:49:59.060Z,3.50
2019-05-10T02:50:55.781Z,3.50
2019-05-10T02:51:55.775Z,3.30
2019-05-10T02:52:55.776Z,3.00
2019-05-10T02:53:55.746Z,3.20
2019-05-10T02:54:55.743Z,3.20
2019-05-10T02:55:55.722Z,3.60
2019-05-10T02:56:55.717Z,3.40
2019-05-10T02:57:55.726Z,3.50
2019-05-10T02:58:55.697Z,3.20
2019-05-10T02:59:55.706Z,3.30
2019-05-10T03:00:55.666Z,3.20
2019-05-10T03:01:55.664Z,3.40
2019-05-10T03:02:55.663Z,3.40
2019-05-10T03:03:55.637Z,3.00
2019-05-10T03:04:55.640Z,3.40
2019-05-10T03:05:55.620Z,3.00
2019-05-10T03:06:55.602Z,3.20
2019-05-10T03:07:55.769Z,3.30
2019-05-10T03:08:55.581Z,3.00
2019-05-10T03:09:55.575Z,3.30
2019-05-10T03:10:56.263Z,3.00
2019-05-10T03:11:55.566Z,3.30
2019-05-10T03:12:55.569Z,3.40
2019-05-10T03:13:55.541Z,3.20
2019-05-10T03:14:55.520Z,3.20
2019-05-10T03:15:55.512Z,3.50
2019-05-10T03:16:55.502Z,3.30
2019-05-10T03:17:55.504Z,3.20
2019-05-10T03:18:55.483Z,3.10
2019-05-10T03:19:55.462Z,3.40
2019-05-10T03:20:55.453Z,3.40
2019-05-10T03:21:55.448Z,3.70
2019-05-10T03:22:55.465Z,3.40
2019-05-10T03:23:55.442Z,3.00
2019-05-10T03:24:55.426Z,3.40
2019-05-10T03:25:55.403Z,3.80
2019-05-10T03:26:55.390Z,3.30
2019-05-10T03:27:55.458Z,3.30
2019-05-10T03:28:55.365Z,3.00
2019-05-10T03:29:55.368Z,3.50
2019-05-10T03:30:55.349Z,3.40
2019-05-10T03:31:55.493Z,3.60
2019-05-10T03:32:55.345Z,3.30
2019-05-10T03:33:57.543Z,3.50
2019-05-10T03:34:55.313Z,2.90
2019-05-10T03:35:55.316Z,3.40
2019-05-10T03:36:55.295Z,3.30
2019-05-10T03:37:55.308Z,3.60
2019-05-10T03:38:55.262Z,3.10
2019-05-10T03:39:55.307Z,3.30
2019-05-10T03:40:55.235Z,3.40
2019-05-10T03:41:55.243Z,3.90
2019-05-10T03:42:55.224Z,3.80
2019-05-10T03:43:55.232Z,3.60
2019-05-10T03:44:55.236Z,4.00
2019-05-10T03:45:55.199Z,3.70
2019-05-10T03:46:55.179Z,3.50
2019-05-10T03:47:55.170Z,3.30
2019-05-10T03:48:55.186Z,3.70
2019-05-10T03:49:55.217Z,3.10
2019-05-10T03:50:55.153Z,3.70
2019-05-10T03:51:55.122Z,3.40
2019-05-10T03:52:55.161Z,3.70
2019-05-10T03:53:55.126Z,3.30
2019-05-10T03:54:55.093Z,3.50
2019-05-10T03:55:55.083Z,3.50
2019-05-10T03:57:11.105Z,3.30
2019-05-10T03:57:56.061Z,4.00
2019-05-10T03:58:55.074Z,4.30
2019-05-10T03:59:55.033Z,3.50
2019-05-10T04:00:55.036Z,4.10
2019-05-10T04:01:55.022Z,4.10
2019-05-10T04:02:55.014Z,3.60
2019-05-10T04:03:55.011Z,3.60
2019-05-10T04:04:54.989Z,3.80
2019-05-10T04:05:54.979Z,3.80
2019-05-10T04:06:54.977Z,3.60
2019-05-10T04:07:54.956Z,4.00
2019-05-10T04:08:54.965Z,4.10
2019-05-10T04:09:54.928Z,3.80
2019-05-10T04:10:54.923Z,3.90
2019-05-10T04:11:54.926Z,4.00
2019-05-10T04:12:54.894Z,3.90
2019-05-10T04:13:54.920Z,3.90
2019-05-10T04:14:54.887Z,3.80
2019-05-10T04:15:54.880Z,3.80
2019-05-10T04:16:54.855Z,4.00
2019-05-10T04:17:54.852Z,4.40
2019-05-10T04:18:54.947Z,4.30
2019-05-10T04:19:54.838Z,4.00
2019-05-10T04:20:54.821Z,3.80
2019-05-10T04:21:54.819Z,3.80
2019-05-10T04:22:54.789Z,3.90
2019-05-10T04:23:54.787Z,3.90
2019-05-10T04:24:54.791Z,4.10
2019-05-10T04:25:54.759Z,4.20
2019-05-10T04:26:54.755Z,4.10
2019-05-10T04:27:54.744Z,3.60
2019-05-10T04:28:54.743Z,3.80
2019-05-10T04:29:54.735Z,4.20
2019-05-10T04:30:54.718Z,3.70
2019-05-10T04:31:54.709Z,3.80
2019-05-10T04:32:54.686Z,4.00
2019-05-10T04:33:54.684Z,4.10
2019-05-10T04:34:54.691Z,4.40
2019-05-10T04:35:54.667Z,3.90
2019-05-10T04:36:54.642Z,4.10
2019-05-10T04:37:54.638Z,4.00
2019-05-10T04:38:54.625Z,3.90
2019-05-10T04:39:54.616Z,3.80
2019-05-10T04:40:54.620Z,3.90
2019-05-10T04:41:54.592Z,4.60
2019-05-10T04:42:54.571Z,4.20
2019-05-10T04:43:54.561Z,3.90
2019-05-10T04:44:54.566Z,3.70
2019-05-10T04:45:54.552Z,3.90
2019-05-10T04:46:54.551Z,3.90
2019-05-10T04:47:54.532Z,3.90
2019-05-10T04:48:54.526Z,3.60
2019-05-10T04:49:54.553Z,4.10
2019-05-10T04:50:54.509Z,3.70
2019-05-10T04:51:54.503Z,3.90
2019-05-10T04:52:54.481Z,3.80
2019-05-10T04:53:54.461Z,3.50
2019-05-10T04:54:54.465Z,3.80
2019-05-10T04:55:54.432Z,3.80
2019-05-10T04:56:54.444Z,3.70
2019-05-10T04:57:54.418Z,3.60
2019-05-10T04:58:54.410Z,3.90
2019-05-10T04:59:54.403Z,3.70
2019-05-10T05:00:54.393Z,3.70
2019-05-10T05:01:54.387Z,3.60
2019-05-10T05:02:54.358Z,3.60
2019-05-10T05:03:54.346Z,3.80
2019-05-10T05:04:54.355Z,3.70
2019-05-10T05:05:54.329Z,3.40
2019-05-10T05:06:54.353Z,4.00
2019-05-10T05:07:54.313Z,3.70
2019-05-10T05:08:54.298Z,3.70
2019-05-10T05:09:54.295Z,3.70
2019-05-10T05:10:54.281Z,3.70
2019-05-10T05:11:54.287Z,3.70
2019-05-10T05:12:54.263Z,3.80
2019-05-10T05:13:54.280Z,4.00
2019-05-10T05:14:54.231Z,3.70
2019-05-10T05:15:54.222Z,3.70
2019-05-10T05:16:54.225Z,3.90
2019-05-10T05:17:54.219Z,3.50
2019-05-10T05:18:54.192Z,3.60
2019-05-10T05:19:54.184Z,3.80
2019-05-10T05:20:54.168Z,3.60
2019-05-10T05:21:54.192Z,3.60
2019-05-10T05:22:54.174Z,3.50
2019-05-10T05:23:54.140Z,3.70
2019-05-10T05:24:55.127Z,3.90
2019-05-10T05:25:55.128Z,3.50
2019-05-10T05:26:54.115Z,3.60
2019-05-10T05:28:07.492Z,3.50
2019-05-10T05:28:55.082Z,3.40
2019-05-10T05:29:54.076Z,3.40
2019-05-10T05:30:54.071Z,3.40
2019-05-10T05:32:00.789Z,3.30
2019-05-10T05:32:56.984Z,3.40
2019-05-10T05:33:54.048Z,3.50
2019-05-10T05:34:54.010Z,3.60
2019-05-10T05:35:54.003Z,3.40
2019-05-10T05:36:53.996Z,3.30
2019-05-10T05:37:54.081Z,3.30
2019-05-10T05:38:53.986Z,3.50
2019-05-10T05:39:53.962Z,3.10
2019-05-10T05:40:53.971Z,3.10
2019-05-10T05:41:56.609Z,3.40
2019-05-10T05:42:54.001Z,3.00
2019-05-10T05:43:53.925Z,3.10
2019-05-10T05:44:53.909Z,3.50
2019-05-10T05:45:53.900Z,3.40
2019-05-10T05:46:53.895Z,3.30
2019-05-10T05:47:53.902Z,3.10
2019-05-10T05:48:53.861Z,3.60
2019-05-10T05:49:53.855Z,3.10
2019-05-10T05:50:53.896Z,3.10
2019-05-10T05:51:53.838Z,3.30
2019-05-10T05:52:54.053Z,3.40
2019-05-10T05:53:53.892Z,3.30
2019-05-10T05:54:57.494Z,3.20
2019-05-10T05:55:54.796Z,3.20
2019-05-10T05:56:53.788Z,3.30
2019-05-10T05:57:53.789Z,3.20
2019-05-10T05:58:53.759Z,3.20
2019-05-10T05:59:57.313Z,3.30
2019-05-10T06:00:54.757Z,3.10
2019-05-10T06:01:53.730Z,3.20
2019-05-10T06:02:53.750Z,3.10
2019-05-10T06:03:53.721Z,3.50
2019-05-10T06:04:53.701Z,3.20
2019-05-10T06:05:53.684Z,3.00
2019-05-10T06:06:58.797Z,3.10
2019-05-10T06:07:54.677Z,3.10
2019-05-10T06:08:54.432Z,2.90
2019-05-10T06:09:54.655Z,2.70
2019-05-10T06:10:57.602Z,3.10
2019-05-10T06:11:54.633Z,2.90
2019-05-10T06:12:53.611Z,2.90
2019-05-10T06:13:53.642Z,3.00
2019-05-10T06:14:53.592Z,2.70
2019-05-10T06:15:53.582Z,3.10
2019-05-10T06:16:53.573Z,3.00
2019-05-10T06:17:57.232Z,2.60
2019-05-10T06:18:53.556Z,2.90
2019-05-10T06:19:53.536Z,2.80
2019-05-10T06:20:53.531Z,2.90
2019-05-10T06:21:57.979Z,3.10
2019-05-10T06:23:05.779Z,2.60
2019-05-10T06:23:54.509Z,2.70
2019-05-10T06:24:53.976Z,2.80
2019-05-10T06:25:53.477Z,3.00
2019-05-10T06:26:53.474Z,2.50
2019-05-10T06:27:53.448Z,3.10
2019-05-10T06:29:04.217Z,2.70
2019-05-10T06:29:54.428Z,2.70
2019-05-10T06:30:53.416Z,3.10
2019-05-10T06:31:53.406Z,3.00
2019-05-10T06:33:00.430Z,2.80
2019-05-10T06:33:54.395Z,2.90
2019-05-10T06:34:53.380Z,2.60
2019-05-10T06:35:53.362Z,2.80
2019-05-10T06:36:53.381Z,2.80
2019-05-10T06:37:53.355Z,2.50
2019-05-10T06:38:53.339Z,2.60
2019-05-10T06:39:53.319Z,2.70
2019-05-10T06:40:53.305Z,2.80
2019-05-10T06:41:56.345Z,2.70
2019-05-10T06:42:53.290Z,2.40
2019-05-10T06:43:54.109Z,2.40
2019-05-10T06:44:53.264Z,2.60
2019-05-10T06:45:53.956Z,2.00
2019-05-10T06:46:53.243Z,2.50
2019-05-10T06:47:53.579Z,2.40
2019-05-10T06:48:53.223Z,2.30
2019-05-10T06:49:53.248Z,2.30
2019-05-10T06:50:53.196Z,2.30
2019-05-10T06:51:53.181Z,2.20
2019-05-10T06:52:53.174Z,2.20
2019-05-10T06:53:53.988Z,2.20
2019-05-10T06:54:53.180Z,2.30
2019-05-10T06:55:53.176Z,2.20
2019-05-10T06:56:53.138Z,2.30
2019-05-10T06:57:59.117Z,2.10
2019-05-10T06:58:54.955Z,2.10
2019-05-10T06:59:57.006Z,2.10
2019-05-10T07:00:54.097Z,2.30
2019-05-10T07:01:53.081Z,2.30
2019-05-10T07:02:53.074Z,2.30
2019-05-10T07:03:53.053Z,2.40
2019-05-10T07:04:53.090Z,2.40
2019-05-10T07:05:53.039Z,2.00
2019-05-10T07:06:53.033Z,2.30
2019-05-10T07:07:53.020Z,1.90
2019-05-10T07:08:58.356Z,2.00
2019-05-10T07:10:12.608Z,2.20
2019-05-10T07:10:53.989Z,2.00
2019-05-10T07:11:52.972Z,2.00
2019-05-10T07:12:56.870Z,1.80
2019-05-10T07:13:53.963Z,1.90
2019-05-10T07:14:57.880Z,1.90
2019-05-10T07:15:53.920Z,2.10
2019-05-10T07:16:56.530Z,2.20
2019-05-10T07:17:53.919Z,2.10
2019-05-10T07:18:54.984Z,2.30
2019-05-10T07:19:55.302Z,2.10
2019-05-10T07:20:52.874Z,2.00
2019-05-10T07:21:52.858Z,2.10
2019-05-10T07:22:52.846Z,2.10
2019-05-10T07:23:52.834Z,2.10
2019-05-10T07:24:57.041Z,1.80
2019-05-10T07:25:53.818Z,2.10
2019-05-10T07:26:56.698Z,2.30
2019-05-10T07:27:53.809Z,2.20
2019-05-10T07:28:57.666Z,1.80
2019-05-10T07:29:53.883Z,2.00
2019-05-10T07:30:52.762Z,1.90
2019-05-10T07:31:52.759Z,2.30
2019-05-10T07:32:54.609Z,1.80
2019-05-10T07:33:53.733Z,2.00
2019-05-10T07:34:58.887Z,2.20
2019-05-10T07:35:53.720Z,1.80
2019-05-10T07:36:52.702Z,2.10
2019-05-10T07:37:53.155Z,2.20
2019-05-10T07:38:52.679Z,2.10
2019-05-10T07:39:52.676Z,2.20
2019-05-10T07:40:52.676Z,2.10
2019-05-10T07:41:52.653Z,2.00
2019-05-10T07:42:52.634Z,2.30
2019-05-10T07:43:52.626Z,2.10
2019-05-10T07:44:52.608Z,2.40
2019-05-10T07:45:58.774Z,2.10
2019-05-10T07:46:56.363Z,2.80
2019-05-10T07:47:52.589Z,2.20
2019-05-10T07:48:53.760Z,2.20
2019-05-10T07:49:52.559Z,2.10
2019-05-10T07:50:52.580Z,2.40
2019-05-10T07:51:52.538Z,2.20
2019-05-10T07:52:52.527Z,2.70
2019-05-10T07:53:57.017Z,2.20
2019-05-10T07:54:53.503Z,2.00
2019-05-10T07:55:52.504Z,1.90
2019-05-10T07:56:52.481Z,2.20
2019-05-10T07:57:52.471Z,2.10
2019-05-10T07:58:52.468Z,2.40
2019-05-10T07:59:52.477Z,2.10
2019-05-10T08:00:55.994Z,2.10
2019-05-10T08:01:52.426Z,2.40
2019-05-10T08:03:02.412Z,2.40
2019-05-10T08:03:53.414Z,2.10
2019-05-10T08:04:53.679Z,1.80
2019-05-10T08:05:57.060Z,2.10
2019-05-10T08:06:53.382Z,2.00
2019-05-10T08:07:52.358Z,2.20
2019-05-10T08:08:55.292Z,2.00
2019-05-10T08:09:53.341Z,1.90
2019-05-10T08:10:52.354Z,2.00
2019-05-10T08:11:54.177Z,1.90
2019-05-10T08:12:53.307Z,1.80
2019-05-10T08:13:52.301Z,1.90
2019-05-10T08:14:53.638Z,2.10
2019-05-10T08:15:52.296Z,2.20
2019-05-10T08:16:58.540Z,1.80
2019-05-10T08:17:53.253Z,1.80
2019-05-10T08:18:55.710Z,1.60
2019-05-10T08:19:53.243Z,1.60
2019-05-10T08:20:58.255Z,1.80
2019-05-10T08:21:56.535Z,1.50
2019-05-10T08:22:53.196Z,1.40
2019-05-10T08:23:54.034Z,1.50
2019-05-10T08:24:56.044Z,1.50
2019-05-10T08:25:53.316Z,1.60
2019-05-10T08:26:55.612Z,1.40
2019-05-10T08:27:55.348Z,1.60
2019-05-10T08:28:52.695Z,1.50
2019-05-10T08:30:15.777Z,1.50
2019-05-10T08:30:58.372Z,1.30
2019-05-10T08:31:55.918Z,1.50
2019-05-10T08:32:52.701Z,1.50
2019-05-10T08:33:56.430Z,1.70
2019-05-10T08:34:55.871Z,1.60
2019-05-10T08:36:00.344Z,1.60
2019-05-10T08:36:53.063Z,1.90
2019-05-10T08:37:53.011Z,1.60
2019-05-10T08:39:03.391Z,1.50
2019-05-10T08:39:55.907Z,1.60
2019-05-10T08:40:52.726Z,1.50
2019-05-10T08:42:03.676Z,1.50
2019-05-10T08:43:03.181Z,1.70
2019-05-10T08:43:52.976Z,1.70
2019-05-10T08:45:03.189Z,1.70
2019-05-10T08:45:52.961Z,1.60
2019-05-10T08:46:52.609Z,1.50
2019-05-10T08:47:59.938Z,1.60
2019-05-10T08:48:53.822Z,1.60
2019-05-10T08:50:08.105Z,1.40
2019-05-10T08:50:57.206Z,1.50
2019-05-10T08:51:52.330Z,1.70
2019-05-10T08:52:56.497Z,1.60
2019-05-10T08:53:57.993Z,1.60
2019-05-10T08:54:55.202Z,1.50
2019-05-10T08:55:52.528Z,1.60
2019-05-10T08:56:54.924Z,1.50
2019-05-10T08:57:52.835Z,1.70
2019-05-10T08:58:53.657Z,1.70
2019-05-10T08:59:55.401Z,1.70
2019-05-10T09:01:09.636Z,1.50
2019-05-10T09:01:53.786Z,1.80
2019-05-10T09:02:52.186Z,1.80
2019-05-10T09:03:59.013Z,1.60
2019-05-10T09:04:53.025Z,1.80
2019-05-10T09:05:52.467Z,1.70
2019-05-10T09:06:55.466Z,1.70
2019-05-10T09:07:52.715Z,1.90
2019-05-10T09:08:55.318Z,1.50
2019-05-10T09:09:53.159Z,1.80
2019-05-10T09:10:52.917Z,1.80
2019-05-10T09:11:52.291Z,1.60
2019-05-10T09:12:57.939Z,1.90
2019-05-10T09:13:53.389Z,1.80
2019-05-10T09:14:57.294Z,1.80
2019-05-10T09:15:56.866Z,2.00
2019-05-10T09:17:00.669Z,1.60
2019-05-10T09:17:52.826Z,1.80
2019-05-10T09:18:53.433Z,1.80
2019-05-10T09:19:51.859Z,1.50
2019-05-10T09:20:54.088Z,1.60
2019-05-10T09:21:55.044Z,1.40
2019-05-10T09:22:52.845Z,1.50
2019-05-10T09:24:01.062Z,1.40
2019-05-10T09:24:53.194Z,1.30
2019-05-10T09:25:51.985Z,1.40
2019-05-10T09:26:54.781Z,1.50
2019-05-10T09:27:53.169Z,1.20
2019-05-10T09:28:53.475Z,1.20
2019-05-10T09:29:53.045Z,1.30
2019-05-10T09:31:00.426Z,1.20
2019-05-10T09:31:53.476Z,1.30
2019-05-10T09:32:52.097Z,1.20
2019-05-10T09:33:54.133Z,1.50
2019-05-10T09:34:54.157Z,1.40
2019-05-10T09:35:54.762Z,1.40
2019-05-10T09:36:52.958Z,1.20
2019-05-10T09:37:53.946Z,1.20
2019-05-10T09:38:52.891Z,1.30
2019-05-10T09:39:54.894Z,1.20
2019-05-10T09:40:56.115Z,1.10
2019-05-10T09:41:52.737Z,1.00
2019-05-10T09:42:52.296Z,1.10
2019-05-10T09:43:53.596Z,1.10
2019-05-10T09:44:52.662Z,1.00
2019-05-10T09:45:53.038Z,1.10
2019-05-10T09:46:52.455Z,1.10
2019-05-10T09:47:53.020Z,1.20
2019-05-10T09:48:54.552Z,1.00
2019-05-10T09:49:57.294Z,1.00
2019-05-10T09:50:55.693Z,0.90
2019-05-10T09:51:52.717Z,1.10
2019-05-10T09:52:51.256Z,1.00
2019-05-10T09:53:51.242Z,1.10
2019-05-10T09:54:51.211Z,1.20
2019-05-10T09:56:01.669Z,0.90
2019-05-10T09:56:52.489Z,1.20
2019-05-10T09:57:51.174Z,1.10
2019-05-10T09:58:51.186Z,1.30
2019-05-10T09:59:51.153Z,1.30
2019-05-10T10:00:51.153Z,1.20
2019-05-10T10:01:51.143Z,1.30
2019-05-10T10:02:56.421Z,1.40
2019-05-10T10:03:52.135Z,1.30
2019-05-10T10:04:51.114Z,1.20
2019-05-10T10:05:55.317Z,1.30
2019-05-10T10:06:52.894Z,1.30
2019-05-10T10:07:51.069Z,1.30
2019-05-10T10:08:53.288Z,1.60
2019-05-10T10:09:51.057Z,1.40
2019-05-10T10:10:51.045Z,1.20
2019-05-10T10:11:57.980Z,1.30
2019-05-10T10:12:52.009Z,1.50
2019-05-10T10:13:59.383Z,1.30
2019-05-10T10:14:51.999Z,1.30
2019-05-10T10:15:52.463Z,1.30
2019-05-10T10:16:58.420Z,1.20
2019-05-10T10:17:51.957Z,1.50
2019-05-10T10:18:50.970Z,1.40
2019-05-10T10:19:50.934Z,1.40
2019-05-10T10:20:50.923Z,1.30
2019-05-10T10:21:50.923Z,1.50
2019-05-10T10:22:54.428Z,1.30
2019-05-10T10:23:50.914Z,1.30
2019-05-10T10:24:54.928Z,1.40
2019-05-10T10:25:51.866Z,1.40
2019-05-10T10:26:53.926Z,1.30
2019-05-10T10:27:50.859Z,1.30
2019-05-10T10:28:54.966Z,1.60
2019-05-10T10:29:51.825Z,1.40
2019-05-10T10:30:59.083Z,1.30
2019-05-10T10:31:55.812Z,1.20
2019-05-10T10:32:51.792Z,1.30
2019-05-10T10:33:58.002Z,1.50
2019-05-10T10:34:54.701Z,1.50
2019-05-10T10:35:50.804Z,1.40
2019-05-10T10:36:50.756Z,1.40
2019-05-10T10:37:50.739Z,1.20
2019-05-10T10:38:50.732Z,1.40
2019-05-10T10:39:54.510Z,1.30
2019-05-10T10:40:51.705Z,1.60
2019-05-10T10:41:52.226Z,1.30
2019-05-10T10:42:50.699Z,1.60
2019-05-10T10:43:50.675Z,1.20
2019-05-10T10:44:50.680Z,1.40
2019-05-10T10:45:50.659Z,1.40
2019-05-10T10:46:50.651Z,1.50
2019-05-10T10:47:50.634Z,1.20
2019-05-10T10:48:51.440Z,1.50
2019-05-10T10:49:50.622Z,1.30
2019-05-10T10:50:55.579Z,1.70
2019-05-10T10:51:51.590Z,1.40
2019-05-10T10:52:50.580Z,1.60
2019-05-10T10:53:52.666Z,1.50
2019-05-10T10:54:50.577Z,1.80
2019-05-10T10:55:54.376Z,1.50
2019-05-10T10:56:51.546Z,1.60
2019-05-10T10:57:50.526Z,1.40
2019-05-10T10:58:50.534Z,1.40
2019-05-10T10:59:50.523Z,1.40
2019-05-10T11:00:50.499Z,1.60
2019-05-10T11:02:16.034Z,1.50
2019-05-10T11:02:52.208Z,1.60
2019-05-10T11:03:50.460Z,1.40
2019-05-10T11:04:50.465Z,1.40
2019-05-10T11:05:50.444Z,1.20
2019-05-10T11:06:50.435Z,1.40
2019-05-10T11:07:51.238Z,1.30
2019-05-10T11:08:51.848Z,1.40
2019-05-10T11:09:53.697Z,1.40
2019-05-10T11:10:51.384Z,1.20
2019-05-10T11:11:51.542Z,1.40
2019-05-10T11:12:51.285Z,1.30
2019-05-10T11:13:58.208Z,1.30
2019-05-10T11:14:51.363Z,1.40
2019-05-10T11:15:51.600Z,1.30
2019-05-10T11:16:55.448Z,1.50
2019-05-10T11:17:51.312Z,1.50
2019-05-10T11:18:51.909Z,1.30
2019-05-10T11:19:50.306Z,1.20
2019-05-10T11:20:53.869Z,1.40
2019-05-10T11:21:51.450Z,1.20
2019-05-10T11:22:53.367Z,1.30
2019-05-10T11:23:50.243Z,1.20
2019-05-10T11:24:53.422Z,1.40
2019-05-10T11:25:56.304Z,1.40
2019-05-10T11:26:51.774Z,1.30
2019-05-10T11:27:53.837Z,1.50
2019-05-10T11:28:51.468Z,1.30
2019-05-10T11:29:54.413Z,1.30
2019-05-10T11:30:51.157Z,1.20
2019-05-10T11:32:11.199Z,1.50
2019-05-10T11:32:51.154Z,1.20
2019-05-10T11:33:53.800Z,1.40
2019-05-10T11:34:51.143Z,1.30
2019-05-10T11:35:51.362Z,1.60
2019-05-10T11:36:51.216Z,1.50
2019-05-10T11:37:50.867Z,1.40
2019-05-10T11:38:56.572Z,1.40
2019-05-10T11:39:51.093Z,1.10
2019-05-10T11:40:50.072Z,1.60
2019-05-10T11:41:52.961Z,1.60
2019-05-10T11:42:51.248Z,1.60
2019-05-10T11:43:50.033Z,1.80
2019-05-10T11:44:54.372Z,2.10
2019-05-10T11:45:51.440Z,2.30
2019-05-10T11:46:50.771Z,2.10
2019-05-10T11:47:54.294Z,1.80
2019-05-10T11:48:51.181Z,2.10
2019-05-10T11:49:50.875Z,1.90
2019-05-10T11:50:51.343Z,2.20
2019-05-10T11:51:54.859Z,2.30
2019-05-10T11:52:51.497Z,2.30
2019-05-10T11:53:55.371Z,3.50
2019-05-10T11:54:51.501Z,2.90
2019-05-10T11:55:51.729Z,3.00
2019-05-10T11:56:52.144Z,2.90
2019-05-10T11:58:01.241Z,3.40
2019-05-10T11:58:55.409Z,3.00
2019-05-10T11:59:51.481Z,3.60
2019-05-10T12:00:55.851Z,3.70
2019-05-10T12:03:50.824Z,3.80
2019-05-10T12:04:52.757Z,3.60
2019-05-10T12:05:53.190Z,3.50
2019-05-10T12:06:51.461Z,3.30
2019-05-10T12:07:54.189Z,3.30
2019-05-10T12:08:56.965Z,3.30
2019-05-10T12:09:53.464Z,3.30
2019-05-10T12:10:54.425Z,3.40
2019-05-10T12:11:55.428Z,4.00
2019-05-10T12:13:08.212Z,3.90
2019-05-10T12:13:52.958Z,3.90
2019-05-10T12:14:53.967Z,3.80
2019-05-10T12:15:52.081Z,4.40
2019-05-10T12:16:54.200Z,4.10
2019-05-10T12:17:57.971Z,4.40
2019-05-10T12:19:05.533Z,4.00
2019-05-10T12:19:56.237Z,3.90
2019-05-10T12:20:58.604Z,4.10
2019-05-10T12:21:55.488Z,4.60
2019-05-10T12:22:51.833Z,4.20
2019-05-10T12:23:51.890Z,4.00
2019-05-10T12:25:06.170Z,3.80
2019-05-10T12:26:18.523Z,3.90
2019-05-10T12:26:18.523Z,3.60
2019-05-10T12:26:35.813Z,3.90
2019-05-10T12:27:52.196Z,4.00
2019-05-10T12:28:51.065Z,4.40
2019-05-10T12:29:55.517Z,3.90
2019-05-10T12:30:51.161Z,4.20
2019-05-10T12:31:55.168Z,3.80
2019-05-10T12:32:56.059Z,4.20
2019-05-10T12:33:50.739Z,4.30
2019-05-10T12:34:51.876Z,4.20
2019-05-10T12:35:51.061Z,4.40
2019-05-10T12:36:51.776Z,4.20
2019-05-10T12:37:53.849Z,4.20
2019-05-10T12:38:49.432Z,4.40
2019-05-10T12:39:52.886Z,4.50
2019-05-10T12:40:51.311Z,4.20
2019-05-10T12:41:52.234Z,4.20
2019-05-10T12:42:49.398Z,3.70
2019-05-10T12:43:51.656Z,3.60
2019-05-10T12:44:51.459Z,4.20
2019-05-10T12:45:51.573Z,4.60
2019-05-10T12:46:50.915Z,3.50
2019-05-10T12:47:51.731Z,3.90
2019-05-10T12:48:51.566Z,3.80
2019-05-10T12:49:53.910Z,4.10
2019-05-10T12:50:54.422Z,4.10
2019-05-10T12:51:51.400Z,4.60
2019-05-10T12:53:01.889Z,5.10
2019-05-10T12:53:52.093Z,4.30
2019-05-10T12:54:49.268Z,5.10
2019-05-10T12:55:49.281Z,4.90
2019-05-10T12:56:49.256Z,4.70
2019-05-10T12:57:49.235Z,4.30
2019-05-10T12:58:56.752Z,4.70
2019-05-10T12:59:50.224Z,4.50
2019-05-10T13:00:52.370Z,4.60
2019-05-10T13:01:49.201Z,4.90
2019-05-10T13:02:51.893Z,4.50
2019-05-10T13:03:49.177Z,5.10
2019-05-10T13:04:52.514Z,5.10
2019-05-10T13:05:53.300Z,5.60
2019-05-10T13:06:49.154Z,5.60
2019-05-10T13:07:49.136Z,4.90
2019-05-10T13:08:49.112Z,5.20
2019-05-10T13:09:50.168Z,5.10
2019-05-10T13:10:49.843Z,4.80
2019-05-10T13:11:49.102Z,5.20
2019-05-10T13:12:49.114Z,4.70
2019-05-10T13:13:49.066Z,4.70
2019-05-10T13:14:52.733Z,4.80
2019-05-10T13:15:49.055Z,4.70
2019-05-10T13:16:49.025Z,5.20
2019-05-10T13:17:51.208Z,4.80
2019-05-10T13:18:52.189Z,4.60
2019-05-10T13:19:52.725Z,4.30